sensor_id;sensor_type;location;lat;lon;timestamp;pressure;altitude;pressure_sealevel;temperature;humidity
30967;BME280;17649;51.836;8.330;2023-02-19T00:00:10;100994.00;;;10.88;100.00
30967;BME280;17649;51.836;8.330;2023-02-19T00:03:10;101000.78;;;10.91;100.00
30967;BME280;17649;51.836;8.330;2023-02-19T00:06:10;100988.66;;;10.91;100.00
30967;BME280;17649;51.836;8.330;2023-02-19T00:09:12;100989.75;;;10.87;100.00
30967;BME280;17649;51.836;8.330;2023-02-19T00:12:13;100981.81;;;10.73;100.00
30967;BME280;17649;51.836;8.330;2023-02-19T00:15:13;101001.75;;;10.88;100.00
30967;BME280;17649;51.836;8.330;2023-02-19T00:18:14;100988.94;;;10.85;100.00
30967;BME280;17649;51.836;8.330;2023-02-19T00:21:16;100981.88;;;10.89;100.00
30967;BME280;17649;51.836;8.330;2023-02-19T00:24:17;100976.00;;;10.85;100.00
30967;BME280;17649;51.836;8.330;2023-02-19T00:27:18;100973.88;;;10.93;100.00
30967;BME280;17649;51.836;8.330;2023-02-19T00:30:18;100974.25;;;11.03;100.00
30967;BME280;17649;51.836;8.330;2023-02-19T00:33:18;100973.72;;;10.96;100.00
30967;BME280;17649;51.836;8.330;2023-02-19T00:36:19;100976.38;;;10.95;100.00
30967;BME280;17649;51.836;8.330;2023-02-19T00:39:20;100969.03;;;10.87;100.00
30967;BME280;17649;51.836;8.330;2023-02-19T00:42:20;100973.28;;;10.71;100.00
30967;BME280;17649;51.836;8.330;2023-02-19T00:45:21;100962.16;;;10.69;100.00
30967;BME280;17649;51.836;8.330;2023-02-19T00:48:21;100961.56;;;10.64;100.00
30967;BME280;17649;51.836;8.330;2023-02-19T00:51:25;100968.88;;;10.73;100.00
30967;BME280;17649;51.836;8.330;2023-02-19T00:54:25;100966.75;;;10.64;100.00
30967;BME280;17649;51.836;8.330;2023-02-19T00:57:26;100969.88;;;10.88;100.00
30967;BME280;17649;51.836;8.330;2023-02-19T01:00:27;100962.09;;;10.88;100.00
30967;BME280;17649;51.836;8.330;2023-02-19T01:03:27;100959.88;;;10.80;100.00
30967;BME280;17649;51.836;8.330;2023-02-19T01:06:28;100969.63;;;10.75;100.00
30967;BME280;17649;51.836;8.330;2023-02-19T01:09:29;100969.03;;;10.87;100.00
30967;BME280;17649;51.836;8.330;2023-02-19T01:12:30;100971.38;;;10.74;100.00
30967;BME280;17649;51.836;8.330;2023-02-19T01:15:33;100976.66;;;10.73;100.00
30967;BME280;17649;51.836;8.330;2023-02-19T01:18:34;100969.16;;;10.67;100.00
30967;BME280;17649;51.836;8.330;2023-02-19T01:21:36;100975.56;;;10.77;100.00
30967;BME280;17649;51.836;8.330;2023-02-19T01:24:39;100971.47;;;10.73;100.00
30967;BME280;17649;51.836;8.330;2023-02-19T01:27:40;100965.66;;;10.85;100.00
30967;BME280;17649;51.836;8.330;2023-02-19T01:30:40;100961.09;;;10.90;100.00
30967;BME280;17649;51.836;8.330;2023-02-19T01:33:45;100968.81;;;10.74;100.00
30967;BME280;17649;51.836;8.330;2023-02-19T01:36:46;100963.97;;;10.84;100.00
30967;BME280;17649;51.836;8.330;2023-02-19T01:39:46;100972.16;;;10.77;100.00
30967;BME280;17649;51.836;8.330;2023-02-19T01:42:47;100965.59;;;10.87;100.00
30967;BME280;17649;51.836;8.330;2023-02-19T01:45:47;100965.06;;;10.80;100.00
30967;BME280;17649;51.836;8.330;2023-02-19T01:48:48;100964.00;;;10.67;100.00
30967;BME280;17649;51.836;8.330;2023-02-19T01:54:56;100973.22;;;10.72;100.00
30967;BME280;17649;51.836;8.330;2023-02-19T01:57:57;100968.25;;;10.68;100.00
30967;BME280;17649;51.836;8.330;2023-02-19T02:00:59;100966.06;;;10.78;100.00
30967;BME280;17649;51.836;8.330;2023-02-19T02:04:01;100959.38;;;10.73;100.00
30967;BME280;17649;51.836;8.330;2023-02-19T02:07:04;100962.09;;;10.70;100.00
30967;BME280;17649;51.836;8.330;2023-02-19T02:10:25;100965.47;;;10.72;100.00
30967;BME280;17649;51.836;8.330;2023-02-19T02:13:26;100960.88;;;10.78;100.00
30967;BME280;17649;51.836;8.330;2023-02-19T02:23:08;100945.78;;;11.03;100.00
30967;BME280;17649;51.836;8.330;2023-02-19T02:29:35;100939.75;;;10.85;100.00
30967;BME280;17649;51.836;8.330;2023-02-19T02:32:44;100946.31;;;10.92;100.00
30967;BME280;17649;51.836;8.330;2023-02-19T02:36:12;100951.66;;;10.89;100.00
30967;BME280;17649;51.836;8.330;2023-02-19T02:39:17;100945.66;;;10.89;100.00
30967;BME280;17649;51.836;8.330;2023-02-19T02:42:19;100953.94;;;10.78;100.00
30967;BME280;17649;51.836;8.330;2023-02-19T02:45:31;100949.94;;;10.72;100.00
30967;BME280;17649;51.836;8.330;2023-02-19T02:48:35;100949.44;;;10.82;100.00
30967;BME280;17649;51.836;8.330;2023-02-19T02:51:40;100957.97;;;10.84;100.00
30967;BME280;17649;51.836;8.330;2023-02-19T02:54:42;100957.91;;;10.68;100.00
30967;BME280;17649;51.836;8.330;2023-02-19T02:58:01;100960.03;;;10.77;100.00
30967;BME280;17649;51.836;8.330;2023-02-19T03:01:12;100968.09;;;10.71;100.00
30967;BME280;17649;51.836;8.330;2023-02-19T03:04:45;100963.84;;;10.70;100.00
30967;BME280;17649;51.836;8.330;2023-02-19T03:08:12;100954.72;;;10.63;100.00
30967;BME280;17649;51.836;8.330;2023-02-19T03:11:15;100956.00;;;10.54;100.00
30967;BME280;17649;51.836;8.330;2023-02-19T03:14:45;100958.06;;;10.65;100.00
30967;BME280;17649;51.836;8.330;2023-02-19T03:18:06;100959.06;;;10.62;100.00
30967;BME280;17649;51.836;8.330;2023-02-19T03:21:27;100964.00;;;10.67;100.00
30967;BME280;17649;51.836;8.330;2023-02-19T03:24:31;100957.66;;;10.55;100.00
30967;BME280;17649;51.836;8.330;2023-02-19T03:27:51;100958.59;;;10.54;100.00
30967;BME280;17649;51.836;8.330;2023-02-19T03:30:54;100965.41;;;10.38;100.00
30967;BME280;17649;51.836;8.330;2023-02-19T03:34:00;100972.50;;;10.52;100.00
30967;BME280;17649;51.836;8.330;2023-02-19T03:37:18;100973.09;;;10.39;100.00
30967;BME280;17649;51.836;8.330;2023-02-19T03:40:28;100978.91;;;10.44;100.00
30967;BME280;17649;51.836;8.330;2023-02-19T03:43:37;100984.84;;;10.29;100.00
30967;BME280;17649;51.836;8.330;2023-02-19T03:46:59;100991.53;;;10.33;100.00
30967;BME280;17649;51.836;8.330;2023-02-19T03:50:28;100994.41;;;10.27;100.00
30967;BME280;17649;51.836;8.330;2023-02-19T03:56:47;100996.69;;;10.33;100.00
30967;BME280;17649;51.836;8.330;2023-02-19T03:59:58;101001.66;;;10.19;100.00
30967;BME280;17649;51.836;8.330;2023-02-19T04:06:26;101016.06;;;10.25;100.00
30967;BME280;17649;51.836;8.330;2023-02-19T04:12:35;101025.44;;;10.27;100.00
30967;BME280;17649;51.836;8.330;2023-02-19T04:15:39;101024.31;;;10.14;100.00
30967;BME280;17649;51.836;8.330;2023-02-19T04:18:43;101017.50;;;10.11;100.00
30967;BME280;17649;51.836;8.330;2023-02-19T04:21:44;101024.47;;;10.30;100.00
30967;BME280;17649;51.836;8.330;2023-02-19T04:24:48;101032.91;;;10.33;100.00
30967;BME280;17649;51.836;8.330;2023-02-19T04:27:50;101037.31;;;10.31;100.00
30967;BME280;17649;51.836;8.330;2023-02-19T04:30:50;101036.88;;;10.40;100.00
30967;BME280;17649;51.836;8.330;2023-02-19T04:33:51;101033.66;;;10.35;100.00
30967;BME280;17649;51.836;8.330;2023-02-19T04:36:51;101042.34;;;10.34;100.00
30967;BME280;17649;51.836;8.330;2023-02-19T04:39:52;101042.19;;;10.19;100.00
30967;BME280;17649;51.836;8.330;2023-02-19T04:42:52;101049.00;;;10.21;100.00
30967;BME280;17649;51.836;8.330;2023-02-19T04:45:52;101062.28;;;10.32;100.00
30967;BME280;17649;51.836;8.330;2023-02-19T04:48:54;101064.84;;;10.32;100.00
30967;BME280;17649;51.836;8.330;2023-02-19T04:51:54;101066.94;;;10.24;100.00
30967;BME280;17649;51.836;8.330;2023-02-19T04:54:55;101075.31;;;10.10;100.00
30967;BME280;17649;51.836;8.330;2023-02-19T04:57:55;101070.13;;;10.10;100.00
30967;BME280;17649;51.836;8.330;2023-02-19T05:00:55;101089.44;;;10.03;100.00
30967;BME280;17649;51.836;8.330;2023-02-19T05:03:56;101088.59;;;10.03;100.00
30967;BME280;17649;51.836;8.330;2023-02-19T05:06:56;101086.78;;;10.05;100.00
30967;BME280;17649;51.836;8.330;2023-02-19T05:09:56;101092.34;;;9.96;100.00
30967;BME280;17649;51.836;8.330;2023-02-19T05:12:58;101094.19;;;9.94;100.00
30967;BME280;17649;51.836;8.330;2023-02-19T05:16:12;101103.00;;;10.08;100.00
30967;BME280;17649;51.836;8.330;2023-02-19T05:19:13;101094.50;;;10.25;100.00
30967;BME280;17649;51.836;8.330;2023-02-19T05:22:13;101093.47;;;10.09;100.00
30967;BME280;17649;51.836;8.330;2023-02-19T05:25:13;101096.72;;;10.14;100.00
30967;BME280;17649;51.836;8.330;2023-02-19T05:28:14;101106.00;;;10.18;100.00
30967;BME280;17649;51.836;8.330;2023-02-19T05:31:18;101112.56;;;10.27;100.00
30967;BME280;17649;51.836;8.330;2023-02-19T05:34:18;101114.69;;;10.17;100.00
30967;BME280;17649;51.836;8.330;2023-02-19T05:37:19;101119.00;;;10.16;100.00
30967;BME280;17649;51.836;8.330;2023-02-19T05:40:19;101122.16;;;10.04;100.00
30967;BME280;17649;51.836;8.330;2023-02-19T05:43:19;101127.47;;;10.20;100.00
30967;BME280;17649;51.836;8.330;2023-02-19T05:46:22;101129.03;;;10.24;100.00
30967;BME280;17649;51.836;8.330;2023-02-19T05:49:24;101139.25;;;10.27;100.00
30967;BME280;17649;51.836;8.330;2023-02-19T05:52:24;101136.41;;;10.13;100.00
30967;BME280;17649;51.836;8.330;2023-02-19T05:55:24;101151.03;;;10.14;100.00
30967;BME280;17649;51.836;8.330;2023-02-19T05:58:26;101149.06;;;10.19;100.00
30967;BME280;17649;51.836;8.330;2023-02-19T06:01:28;101150.59;;;10.04;100.00
30967;BME280;17649;51.836;8.330;2023-02-19T06:04:29;101151.81;;;9.96;100.00
30967;BME280;17649;51.836;8.330;2023-02-19T06:07:31;101157.94;;;10.13;100.00
30967;BME280;17649;51.836;8.330;2023-02-19T06:10:31;101159.19;;;10.05;100.00
30967;BME280;17649;51.836;8.330;2023-02-19T06:13:32;101161.91;;;10.02;100.00
30967;BME280;17649;51.836;8.330;2023-02-19T06:16:32;101171.34;;;10.03;100.00
30967;BME280;17649;51.836;8.330;2023-02-19T06:19:36;101173.53;;;10.12;100.00
30967;BME280;17649;51.836;8.330;2023-02-19T06:22:37;101179.31;;;9.98;100.00
30967;BME280;17649;51.836;8.330;2023-02-19T06:25:37;101187.34;;;10.11;100.00
30967;BME280;17649;51.836;8.330;2023-02-19T06:28:39;101181.97;;;10.15;100.00
30967;BME280;17649;51.836;8.330;2023-02-19T06:31:39;101182.31;;;10.08;100.00
30967;BME280;17649;51.836;8.330;2023-02-19T06:34:40;101191.75;;;10.09;100.00
30967;BME280;17649;51.836;8.330;2023-02-19T06:37:40;101189.16;;;10.09;100.00
30967;BME280;17649;51.836;8.330;2023-02-19T06:40:40;101193.03;;;10.19;100.00
30967;BME280;17649;51.836;8.330;2023-02-19T06:43:41;101190.25;;;10.24;100.00
30967;BME280;17649;51.836;8.330;2023-02-19T06:46:43;101207.00;;;10.15;100.00
30967;BME280;17649;51.836;8.330;2023-02-19T06:49:43;101204.66;;;10.09;100.00
30967;BME280;17649;51.836;8.330;2023-02-19T06:52:45;101214.91;;;10.12;100.00
30967;BME280;17649;51.836;8.330;2023-02-19T06:56:03;101227.31;;;10.24;100.00
30967;BME280;17649;51.836;8.330;2023-02-19T06:59:11;101226.66;;;10.19;100.00
30967;BME280;17649;51.836;8.330;2023-02-19T07:02:12;101240.16;;;10.26;100.00
30967;BME280;17649;51.836;8.330;2023-02-19T07:05:12;101237.53;;;10.27;100.00
30967;BME280;17649;51.836;8.330;2023-02-19T07:08:13;101242.72;;;10.27;100.00
30967;BME280;17649;51.836;8.330;2023-02-19T07:11:16;101251.41;;;10.45;100.00
30967;BME280;17649;51.836;8.330;2023-02-19T07:14:18;101253.16;;;10.44;100.00
30967;BME280;17649;51.836;8.330;2023-02-19T07:17:20;101260.91;;;10.44;100.00
30967;BME280;17649;51.836;8.330;2023-02-19T07:20:20;101267.00;;;10.43;100.00
30967;BME280;17649;51.836;8.330;2023-02-19T07:23:21;101270.81;;;10.35;100.00
30967;BME280;17649;51.836;8.330;2023-02-19T07:26:22;101274.09;;;10.38;100.00
30967;BME280;17649;51.836;8.330;2023-02-19T07:29:22;101288.59;;;10.42;100.00
30967;BME280;17649;51.836;8.330;2023-02-19T07:32:22;101300.91;;;10.56;100.00
30967;BME280;17649;51.836;8.330;2023-02-19T07:35:23;101298.47;;;10.53;100.00
30967;BME280;17649;51.836;8.330;2023-02-19T07:38:26;101303.38;;;10.59;100.00
30967;BME280;17649;51.836;8.330;2023-02-19T07:41:27;101310.56;;;10.53;100.00
30967;BME280;17649;51.836;8.330;2023-02-19T07:44:28;101312.91;;;10.59;100.00
30967;BME280;17649;51.836;8.330;2023-02-19T07:47:28;101319.09;;;10.55;100.00
30967;BME280;17649;51.836;8.330;2023-02-19T07:50:29;101347.00;;;10.48;100.00
30967;BME280;17649;51.836;8.330;2023-02-19T07:53:29;101358.31;;;10.25;100.00
30967;BME280;17649;51.836;8.330;2023-02-19T07:56:30;101354.75;;;9.85;100.00
30967;BME280;17649;51.836;8.330;2023-02-19T07:59:30;101368.03;;;9.76;100.00
30967;BME280;17649;51.836;8.330;2023-02-19T08:02:31;101371.41;;;9.78;100.00
30967;BME280;17649;51.836;8.330;2023-02-19T08:05:50;101372.69;;;9.68;100.00
30967;BME280;17649;51.836;8.330;2023-02-19T08:08:52;101380.38;;;9.70;100.00
30967;BME280;17649;51.836;8.330;2023-02-19T08:11:53;101379.44;;;9.49;100.00
30967;BME280;17649;51.836;8.330;2023-02-19T08:15:12;101402.47;;;9.55;100.00
30967;BME280;17649;51.836;8.330;2023-02-19T08:18:14;101398.38;;;9.49;100.00
30967;BME280;17649;51.836;8.330;2023-02-19T08:21:15;101418.44;;;9.43;100.00
30967;BME280;17649;51.836;8.330;2023-02-19T08:24:19;101425.06;;;9.26;100.00
30967;BME280;17649;51.836;8.330;2023-02-19T08:27:19;101420.63;;;9.07;100.00
30967;BME280;17649;51.836;8.330;2023-02-19T08:30:21;101421.56;;;9.04;100.00
30967;BME280;17649;51.836;8.330;2023-02-19T08:33:21;101437.47;;;9.17;100.00
30967;BME280;17649;51.836;8.330;2023-02-19T08:36:26;101437.88;;;9.30;100.00
30967;BME280;17649;51.836;8.330;2023-02-19T08:39:28;101438.31;;;9.41;100.00
30967;BME280;17649;51.836;8.330;2023-02-19T08:42:28;101440.22;;;9.59;100.00
30967;BME280;17649;51.836;8.330;2023-02-19T08:45:29;101430.84;;;9.56;100.00
30967;BME280;17649;51.836;8.330;2023-02-19T08:48:30;101436.00;;;9.78;100.00
30967;BME280;17649;51.836;8.330;2023-02-19T08:51:30;101440.84;;;9.88;100.00
30967;BME280;17649;51.836;8.330;2023-02-19T08:54:31;101446.19;;;9.83;100.00
30967;BME280;17649;51.836;8.330;2023-02-19T08:57:34;101454.88;;;9.80;100.00
30967;BME280;17649;51.836;8.330;2023-02-19T09:00:34;101447.31;;;9.31;100.00
30967;BME280;17649;51.836;8.330;2023-02-19T09:03:35;101448.63;;;9.17;100.00
30967;BME280;17649;51.836;8.330;2023-02-19T09:06:35;101479.44;;;8.99;100.00
30967;BME280;17649;51.836;8.330;2023-02-19T09:09:37;101480.63;;;8.88;100.00
30967;BME280;17649;51.836;8.330;2023-02-19T09:12:40;101486.25;;;8.75;100.00
30967;BME280;17649;51.836;8.330;2023-02-19T09:15:41;101493.91;;;8.78;100.00
30967;BME280;17649;51.836;8.330;2023-02-19T09:18:41;101501.03;;;8.96;100.00
30967;BME280;17649;51.836;8.330;2023-02-19T09:21:42;101502.09;;;9.15;100.00
30967;BME280;17649;51.836;8.330;2023-02-19T09:24:43;101505.34;;;9.20;100.00
30967;BME280;17649;51.836;8.330;2023-02-19T09:27:44;101509.13;;;8.85;100.00
30967;BME280;17649;51.836;8.330;2023-02-19T09:30:45;101516.38;;;9.01;100.00
30967;BME280;17649;51.836;8.330;2023-02-19T09:33:47;101525.06;;;8.98;100.00
30967;BME280;17649;51.836;8.330;2023-02-19T09:36:48;101533.28;;;9.09;100.00
30967;BME280;17649;51.836;8.330;2023-02-19T09:39:50;101532.69;;;9.26;100.00
30967;BME280;17649;51.836;8.330;2023-02-19T09:42:51;101545.06;;;9.41;100.00
30967;BME280;17649;51.836;8.330;2023-02-19T09:46:00;101553.00;;;9.60;100.00
30967;BME280;17649;51.836;8.330;2023-02-19T09:49:39;101546.81;;;9.88;100.00
30967;BME280;17649;51.836;8.330;2023-02-19T09:52:51;101550.88;;;10.16;100.00
30967;BME280;17649;51.836;8.330;2023-02-19T09:55:54;101557.91;;;10.36;100.00
30967;BME280;17649;51.836;8.330;2023-02-19T09:58:57;101560.06;;;10.47;100.00
30967;BME280;17649;51.836;8.330;2023-02-19T10:02:11;101561.22;;;10.62;100.00
30967;BME280;17649;51.836;8.330;2023-02-19T10:05:20;101587.44;;;10.31;100.00
30967;BME280;17649;51.836;8.330;2023-02-19T10:08:25;101588.47;;;10.27;100.00
30967;BME280;17649;51.836;8.330;2023-02-19T10:11:31;101609.31;;;9.99;100.00
30967;BME280;17649;51.836;8.330;2023-02-19T10:14:36;101605.00;;;9.99;100.00
30967;BME280;17649;51.836;8.330;2023-02-19T10:17:39;101618.22;;;9.67;100.00
30967;BME280;17649;51.836;8.330;2023-02-19T10:20:39;101623.25;;;9.71;100.00
30967;BME280;17649;51.836;8.330;2023-02-19T10:23:40;101644.53;;;9.78;100.00
30967;BME280;17649;51.836;8.330;2023-02-19T10:26:40;101641.22;;;9.74;100.00
30967;BME280;17649;51.836;8.330;2023-02-19T10:29:42;101651.97;;;10.10;100.00
30967;BME280;17649;51.836;8.330;2023-02-19T10:33:00;101652.97;;;10.31;100.00
30967;BME280;17649;51.836;8.330;2023-02-19T10:36:06;101648.00;;;10.49;100.00
30967;BME280;17649;51.836;8.330;2023-02-19T10:42:22;101657.88;;;10.61;100.00
30967;BME280;17649;51.836;8.330;2023-02-19T10:45:37;101654.38;;;10.84;100.00
30967;BME280;17649;51.836;8.330;2023-02-19T10:48:44;101649.69;;;11.14;100.00
30967;BME280;17649;51.836;8.330;2023-02-19T10:51:45;101649.34;;;11.43;100.00
30967;BME280;17649;51.836;8.330;2023-02-19T10:54:52;101640.19;;;11.96;100.00
30967;BME280;17649;51.836;8.330;2023-02-19T10:57:55;101654.59;;;12.21;100.00
30967;BME280;17649;51.836;8.330;2023-02-19T11:01:22;101656.88;;;12.28;100.00
30967;BME280;17649;51.836;8.330;2023-02-19T11:04:27;101659.25;;;12.13;100.00
30967;BME280;17649;51.836;8.330;2023-02-19T11:07:30;101673.00;;;11.97;100.00
30967;BME280;17649;51.836;8.330;2023-02-19T11:10:40;101682.00;;;11.88;100.00
30967;BME280;17649;51.836;8.330;2023-02-19T11:13:41;101677.56;;;11.91;100.00
30967;BME280;17649;51.836;8.330;2023-02-19T11:16:48;101681.75;;;11.94;100.00
30967;BME280;17649;51.836;8.330;2023-02-19T11:19:53;101675.13;;;11.87;100.00
30967;BME280;17649;51.836;8.330;2023-02-19T11:22:58;101689.84;;;12.07;100.00
30967;BME280;17649;51.836;8.330;2023-02-19T11:26:04;101682.53;;;11.96;100.00
30967;BME280;17649;51.836;8.330;2023-02-19T11:29:16;101672.16;;;12.34;100.00
30967;BME280;17649;51.836;8.330;2023-02-19T11:35:22;101657.56;;;12.69;100.00
30967;BME280;17649;51.836;8.330;2023-02-19T11:38:27;101656.00;;;13.01;100.00
30967;BME280;17649;51.836;8.330;2023-02-19T11:48:22;101670.38;;;13.27;100.00
30967;BME280;17649;51.836;8.330;2023-02-19T11:54:52;101666.84;;;12.56;100.00
30967;BME280;17649;51.836;8.330;2023-02-19T12:11:25;101638.44;;;13.75;100.00
30967;BME280;17649;51.836;8.330;2023-02-19T12:21:19;101663.09;;;13.51;100.00
30967;BME280;17649;51.836;8.330;2023-02-19T12:44:41;101689.69;;;13.73;100.00
30967;BME280;17649;51.836;8.330;2023-02-19T12:47:54;101682.97;;;13.69;100.00
30967;BME280;17649;51.836;8.330;2023-02-19T12:54:28;101692.78;;;14.13;100.00
30967;BME280;17649;51.836;8.330;2023-02-19T12:57:32;101702.06;;;13.85;100.00
30967;BME280;17649;51.836;8.330;2023-02-19T13:00:56;101705.59;;;13.67;100.00
30967;BME280;17649;51.836;8.330;2023-02-19T13:04:21;101704.88;;;13.81;100.00
30967;BME280;17649;51.836;8.330;2023-02-19T13:11:02;101712.41;;;15.14;100.00
30967;BME280;17649;51.836;8.330;2023-02-19T13:14:41;101710.00;;;15.11;100.00
30967;BME280;17649;51.836;8.330;2023-02-19T13:17:48;101707.13;;;15.00;100.00
30967;BME280;17649;51.836;8.330;2023-02-19T13:20:51;101709.16;;;15.11;100.00
30967;BME280;17649;51.836;8.330;2023-02-19T13:23:54;101698.81;;;15.09;100.00
30967;BME280;17649;51.836;8.330;2023-02-19T13:34:19;101706.47;;;14.97;100.00
30967;BME280;17649;51.836;8.330;2023-02-19T13:37:23;101712.38;;;14.84;100.00
30967;BME280;17649;51.836;8.330;2023-02-19T13:43:34;101712.13;;;13.58;100.00
30967;BME280;17649;51.836;8.330;2023-02-19T13:46:41;101729.00;;;12.77;100.00
30967;BME280;17649;51.836;8.330;2023-02-19T13:49:47;101722.53;;;12.48;100.00
30967;BME280;17649;51.836;8.330;2023-02-19T13:52:49;101725.75;;;12.35;100.00
30967;BME280;17649;51.836;8.330;2023-02-19T13:55:50;101724.88;;;12.54;100.00
30967;BME280;17649;51.836;8.330;2023-02-19T13:58:54;101715.44;;;12.90;100.00
30967;BME280;17649;51.836;8.330;2023-02-19T14:08:01;101715.66;;;12.85;100.00
30967;BME280;17649;51.836;8.330;2023-02-19T14:11:01;101721.97;;;12.79;100.00
30967;BME280;17649;51.836;8.330;2023-02-19T14:14:02;101732.06;;;12.48;100.00
30967;BME280;17649;51.836;8.330;2023-02-19T14:23:35;101747.06;;;12.80;100.00
30967;BME280;17649;51.836;8.330;2023-02-19T14:26:38;101755.63;;;12.82;100.00
30967;BME280;17649;51.836;8.330;2023-02-19T14:29:41;101754.06;;;12.60;100.00
30967;BME280;17649;51.836;8.330;2023-02-19T14:32:42;101758.63;;;12.36;100.00
30967;BME280;17649;51.836;8.330;2023-02-19T14:35:45;101769.78;;;12.17;100.00
30967;BME280;17649;51.836;8.330;2023-02-19T14:42:05;101769.53;;;11.83;100.00
30967;BME280;17649;51.836;8.330;2023-02-19T14:45:07;101769.81;;;11.55;100.00
30967;BME280;17649;51.836;8.330;2023-02-19T14:48:16;101774.66;;;11.20;100.00
30967;BME280;17649;51.836;8.330;2023-02-19T14:51:29;101782.13;;;11.06;100.00
30967;BME280;17649;51.836;8.330;2023-02-19T14:54:44;101776.34;;;11.21;100.00
30967;BME280;17649;51.836;8.330;2023-02-19T14:57:49;101777.06;;;11.03;100.00
30967;BME280;17649;51.836;8.330;2023-02-19T15:00:51;101771.00;;;10.81;100.00
30967;BME280;17649;51.836;8.330;2023-02-19T15:03:53;101766.44;;;10.87;100.00
30967;BME280;17649;51.836;8.330;2023-02-19T15:06:56;101758.50;;;10.92;100.00
30967;BME280;17649;51.836;8.330;2023-02-19T15:10:01;101765.69;;;10.62;100.00
30967;BME280;17649;51.836;8.330;2023-02-19T15:13:05;101755.47;;;10.34;100.00
30967;BME280;17649;51.836;8.330;2023-02-19T15:16:07;101737.84;;;10.20;100.00
30967;BME280;17649;51.836;8.330;2023-02-19T15:19:08;101731.78;;;10.21;100.00
30967;BME280;17649;51.836;8.330;2023-02-19T15:22:19;101725.34;;;10.08;100.00
30967;BME280;17649;51.836;8.330;2023-02-19T15:25:23;101725.97;;;10.14;100.00
30967;BME280;17649;51.836;8.330;2023-02-19T15:28:30;101723.16;;;10.21;100.00
30967;BME280;17649;51.836;8.330;2023-02-19T15:31:31;101723.13;;;10.22;100.00
30967;BME280;17649;51.836;8.330;2023-02-19T15:34:32;101731.81;;;10.20;100.00
30967;BME280;17649;51.836;8.330;2023-02-19T15:37:34;101728.56;;;10.14;100.00
30967;BME280;17649;51.836;8.330;2023-02-19T15:40:35;101719.13;;;10.13;100.00
30967;BME280;17649;51.836;8.330;2023-02-19T15:46:40;101720.28;;;10.30;100.00
30967;BME280;17649;51.836;8.330;2023-02-19T15:49:52;101723.22;;;10.44;100.00
30967;BME280;17649;51.836;8.330;2023-02-19T15:53:02;101722.84;;;10.53;100.00
30967;BME280;17649;51.836;8.330;2023-02-19T15:56:21;101731.81;;;10.44;100.00
30967;BME280;17649;51.836;8.330;2023-02-19T15:59:39;101729.16;;;10.23;100.00
30967;BME280;17649;51.836;8.330;2023-02-19T16:02:43;101725.34;;;10.08;100.00
30967;BME280;17649;51.836;8.330;2023-02-19T16:05:45;101742.53;;;10.09;100.00
30967;BME280;17649;51.836;8.330;2023-02-19T16:09:17;101749.88;;;9.96;100.00
30967;BME280;17649;51.836;8.330;2023-02-19T16:12:21;101748.09;;;9.98;100.00
30967;BME280;17649;51.836;8.330;2023-02-19T16:15:21;101752.38;;;9.99;100.00
30967;BME280;17649;51.836;8.330;2023-02-19T16:18:22;101748.25;;;9.94;100.00
30967;BME280;17649;51.836;8.330;2023-02-19T16:21:25;101767.09;;;9.97;100.00
30967;BME280;17649;51.836;8.330;2023-02-19T16:24:32;101764.28;;;9.78;100.00
30967;BME280;17649;51.836;8.330;2023-02-19T16:27:36;101760.72;;;9.82;100.00
30967;BME280;17649;51.836;8.330;2023-02-19T16:30:36;101775.84;;;9.68;100.00
30967;BME280;17649;51.836;8.330;2023-02-19T16:36:38;101791.78;;;9.54;100.00
30967;BME280;17649;51.836;8.330;2023-02-19T16:39:40;101791.00;;;9.52;100.00
30967;BME280;17649;51.836;8.330;2023-02-19T16:45:47;101787.59;;;9.50;100.00
30967;BME280;17649;51.836;8.330;2023-02-19T16:48:48;101784.38;;;9.44;100.00
30967;BME280;17649;51.836;8.330;2023-02-19T16:51:49;101794.66;;;9.45;100.00
30967;BME280;17649;51.836;8.330;2023-02-19T16:54:50;101795.50;;;9.46;100.00
30967;BME280;17649;51.836;8.330;2023-02-19T16:57:51;101804.94;;;9.47;100.00
30967;BME280;17649;51.836;8.330;2023-02-19T17:00:52;101813.59;;;9.46;100.00
30967;BME280;17649;51.836;8.330;2023-02-19T17:04:04;101829.97;;;9.45;100.00
30967;BME280;17649;51.836;8.330;2023-02-19T17:07:05;101830.06;;;9.42;100.00
30967;BME280;17649;51.836;8.330;2023-02-19T17:10:05;101830.97;;;9.41;100.00
30967;BME280;17649;51.836;8.330;2023-02-19T17:13:07;101833.72;;;9.35;100.00
30967;BME280;17649;51.836;8.330;2023-02-19T17:16:20;101830.34;;;9.33;100.00
30967;BME280;17649;51.836;8.330;2023-02-19T17:19:21;101842.56;;;9.27;100.00
30967;BME280;17649;51.836;8.330;2023-02-19T17:22:21;101839.13;;;9.27;100.00
30967;BME280;17649;51.836;8.330;2023-02-19T17:25:22;101840.97;;;9.23;100.00
30967;BME280;17649;51.836;8.330;2023-02-19T17:28:23;101844.41;;;9.24;100.00
30967;BME280;17649;51.836;8.330;2023-02-19T17:31:28;101845.31;;;9.23;100.00
30967;BME280;17649;51.836;8.330;2023-02-19T17:34:28;101855.03;;;9.13;100.00
30967;BME280;17649;51.836;8.330;2023-02-19T17:37:29;101849.19;;;9.08;100.00
30967;BME280;17649;51.836;8.330;2023-02-19T17:40:30;101843.03;;;9.12;100.00
30967;BME280;17649;51.836;8.330;2023-02-19T17:43:31;101844.63;;;9.16;100.00
30967;BME280;17649;51.836;8.330;2023-02-19T17:46:31;101866.81;;;9.23;100.00
30967;BME280;17649;51.836;8.330;2023-02-19T17:49:33;101858.16;;;9.24;100.00
30967;BME280;17649;51.836;8.330;2023-02-19T17:52:34;101859.13;;;9.20;100.00
30967;BME280;17649;51.836;8.330;2023-02-19T17:55:34;101860.97;;;9.17;100.00